Time;durP1;ratioP1;P1;durP2;ratioP2;P2;SDS_P1;SDS_P2;PMS_P1;PMS_P2;Temp;Humidity;BMP_temperature;BMP_pressure;BME280_temperature;BME280_humidity;BME280_pressure;Samples;Min_cycle;Max_cycle;Signal;HPM_P1;HPM_P2
2022/09/08 00:02:15;;;;;;;4.90;0.50;;;30.90;93.00;;;;;;4960847;28;20023;-59
2022/09/08 00:04:42;;;;;;;4.05;0.60;;;30.90;93.20;;;;;;4952965;28;20027;-59
2022/09/08 00:07:08;;;;;;;5.28;0.80;;;30.80;94.00;;;;;;4952976;28;20035;-58
2022/09/08 00:09:34;;;;;;;10.20;0.65;;;30.80;92.80;;;;;;4953086;28;20030;-57
2022/09/08 00:12:01;;;;;;;3.95;0.50;;;30.80;92.70;;;;;;4953863;28;20460;-56
2022/09/08 00:14:31;;;;;;;4.88;0.57;;;30.70;94.50;;;;;;4956523;28;20475;-54
2022/09/08 00:16:56;;;;;;;3.95;0.68;;;30.70;95.90;;;;;;4956503;28;20015;-53
2022/09/08 00:19:23;;;;;;;3.25;1.02;;;30.70;94.70;;;;;;4956378;28;20038;-54
2022/09/08 00:21:52;;;;;;;5.43;0.95;;;30.60;96.20;;;;;;4952181;28;20019;-53
2022/09/08 00:24:18;;;;;;;3.92;0.75;;;30.60;98.50;;;;;;4963005;28;20050;-55
2022/09/08 00:26:44;;;;;;;3.63;0.52;;;30.60;97.60;;;;;;4956259;28;20452;-53
2022/09/08 00:29:10;;;;;;;3.03;0.60;;;30.60;96.20;;;;;;4956448;28;20023;-53
2022/09/08 00:31:40;;;;;;;4.07;0.60;;;30.50;98.80;;;;;;4956344;28;20558;-51
2022/09/08 00:34:06;;;;;;;4.05;0.80;;;30.50;99.90;;;;;;4956303;28;20031;-53
2022/09/08 00:36:33;;;;;;;3.67;0.70;;;30.50;98.00;;;;;;4956253;28;20027;-53
2022/09/08 00:39:00;;;;;;;5.25;0.77;;;30.40;97.10;;;;;;4956101;28;20031;-53
2022/09/08 00:41:28;;;;;;;4.50;0.57;;;30.40;97.20;;;;;;4956013;28;20148;-53
2022/09/08 00:44:01;;;;;;;2.42;0.60;;;30.40;96.50;;;;;;4955977;28;20023;-53
2022/09/08 00:46:37;;;;;;;13.48;1.67;;;30.40;98.40;;;;;;4956086;28;20028;-53
2022/09/08 00:49:16;;;;;;;5.38;0.50;;;30.30;97.40;;;;;;4955917;28;20102;-53
2022/09/08 00:51:46;;;;;;;4.65;0.60;;;30.20;99.90;;;;;;4955831;28;20039;-53
2022/09/08 00:54:14;;;;;;;2.80;0.50;;;30.30;99.90;;;;;;4953937;28;20027;-53
2022/09/08 00:56:42;;;;;;;5.03;1.02;;;30.20;99.90;;;;;;4946906;28;20157;-57
2022/09/08 01:01:40;;;;;;;4.05;0.70;;;30.10;99.90;;;;;;4972649;28;20071;-50
2022/09/08 01:04:08;;;;;;;4.43;0.50;;;30.10;99.90;;;;;;4944599;28;20074;-48
2022/09/08 01:14:57;;;;;;;7.70;0.95;;;29.80;99.90;;;;;;4953767;28;20082;-49
2022/09/08 01:17:26;;;;;;;2.70;0.50;;;29.80;99.90;;;;;;4949740;28;20063;-52
2022/09/08 01:19:53;;;;;;;4.43;0.90;;;29.70;99.90;;;;;;4963778;28;20035;-52
2022/09/08 01:22:46;;;;;;;5.53;0.93;;;29.70;99.90;;;;;;4954426;28;20020;-49
2022/09/08 01:25:41;;;;;;;8.85;0.52;;;29.60;99.90;;;;;;4956846;28;20406;-50
2022/09/08 01:28:24;;;;;;;4.78;0.63;;;29.60;99.90;;;;;;4961994;28;20041;-49
2022/09/08 01:30:51;;;;;;;3.13;0.57;;;29.60;99.90;;;;;;4948259;28;20035;-50
2022/09/08 01:33:17;;;;;;;3.55;0.60;;;29.60;99.90;;;;;;4954944;28;20035;-50
2022/09/08 01:35:44;;;;;;;2.78;0.73;;;29.60;99.90;;;;;;4953729;28;20059;-50
2022/09/08 01:38:10;;;;;;;3.22;0.55;;;29.60;99.90;;;;;;4953753;28;20034;-50
2022/09/08 01:40:38;;;;;;;3.08;0.90;;;29.60;99.90;;;;;;4954921;28;20380;-50
2022/09/08 01:43:08;;;;;;;3.65;0.75;;;29.60;99.90;;;;;;4955111;28;20032;-49
2022/09/08 01:45:35;;;;;;;3.88;0.82;;;29.70;99.90;;;;;;4954683;28;20059;-49
2022/09/08 01:48:01;;;;;;;3.50;0.50;;;29.70;99.90;;;;;;4954763;28;20174;-48
2022/09/08 01:50:27;;;;;;;3.40;0.50;;;29.70;99.90;;;;;;4944753;28;20115;-47
2022/09/08 01:52:52;;;;;;;4.95;0.60;;;29.70;99.90;;;;;;4952589;28;20098;-54
2022/09/08 01:55:18;;;;;;;4.63;0.57;;;29.70;99.90;;;;;;4954669;28;20027;-53
2022/09/08 01:57:44;;;;;;;2.35;0.70;;;29.70;99.90;;;;;;4954758;28;20058;-49
2022/09/08 02:00:10;;;;;;;2.20;0.50;;;29.60;99.90;;;;;;4971255;23;20047;-54
2022/09/08 02:02:36;;;;;;;2.88;0.50;;;29.60;99.90;;;;;;4970112;28;20485;-57
2022/09/08 02:05:02;;;;;;;2.75;0.50;;;29.60;99.90;;;;;;4973933;28;20031;-56
2022/09/08 02:07:28;;;;;;;3.55;0.30;;;29.60;99.90;;;;;;4983860;28;20068;-56
2022/09/08 02:09:54;;;;;;;2.55;0.52;;;29.60;99.90;;;;;;4971595;28;20031;-56
2022/09/08 02:12:20;;;;;;;7.13;0.50;;;29.60;99.90;;;;;;4992698;28;20121;-56
2022/09/08 02:14:46;;;;;;;3.53;0.65;;;29.60;99.90;;;;;;4973611;28;20101;-56
2022/09/08 02:17:13;;;;;;;1.42;0.40;;;29.50;99.90;;;;;;4960436;28;20039;-56
2022/09/08 02:19:38;;;;;;;2.13;0.37;;;29.60;99.90;;;;;;4989083;28;20030;-56
2022/09/08 02:22:04;;;;;;;2.25;0.50;;;29.70;99.90;;;;;;4992168;28;20076;-56
2022/09/08 02:24:30;;;;;;;6.20;0.47;;;29.70;99.90;;;;;;4990206;28;20026;-56
2022/09/08 02:26:56;;;;;;;3.35;0.40;;;29.80;99.90;;;;;;4992858;28;20041;-56
2022/09/08 02:29:22;;;;;;;4.68;0.50;;;29.80;99.90;;;;;;4992862;28;20064;-56
2022/09/08 02:31:47;;;;;;;1.58;0.35;;;29.90;99.90;;;;;;4992721;28;20038;-56
2022/09/08 02:34:13;;;;;;;4.88;0.38;;;29.90;99.90;;;;;;4992512;28;20018;-56
2022/09/08 02:36:41;;;;;;;3.15;0.70;;;30.00;99.90;;;;;;4993003;28;20073;-56
2022/09/08 02:39:07;;;;;;;1.98;0.40;;;30.00;99.90;;;;;;4992593;28;20023;-56
2022/09/08 02:41:32;;;;;;;2.80;0.50;;;30.00;99.90;;;;;;4989931;28;20308;-56
2022/09/08 02:43:58;;;;;;;2.55;0.57;;;30.10;99.90;;;;;;4992284;28;20467;-56
2022/09/08 02:46:25;;;;;;;1.40;0.60;;;30.10;99.90;;;;;;4992775;28;20060;-56
2022/09/08 02:48:50;;;;;;;1.07;0.40;;;30.20;99.90;;;;;;4992854;28;20026;-56
2022/09/08 02:51:20;;;;;;;2.50;0.57;;;30.10;99.90;;;;;;4991842;28;20292;-56
2022/09/08 02:53:46;;;;;;;5.50;0.68;;;30.20;99.90;;;;;;4992713;28;20057;-56
2022/09/08 02:56:12;;;;;;;1.70;0.50;;;30.20;99.90;;;;;;4992662;28;20478;-56
2022/09/08 02:58:38;;;;;;;1.58;0.32;;;30.20;99.90;;;;;;4992916;28;20034;-56
2022/09/08 03:01:05;;;;;;;2.30;0.45;;;30.20;99.90;;;;;;4992956;28;20050;-57
2022/09/08 03:03:31;;;;;;;1.65;0.40;;;30.20;99.90;;;;;;4991457;28;20077;-56
2022/09/08 03:05:56;;;;;;;2.53;0.40;;;30.30;99.90;;;;;;4992432;28;20038;-56
2022/09/08 03:08:24;;;;;;;2.13;0.40;;;30.20;99.90;;;;;;4991109;28;20104;-56
2022/09/08 03:10:50;;;;;;;7.28;0.93;;;30.20;99.90;;;;;;4992351;28;20038;-56
2022/09/08 03:13:16;;;;;;;2.47;0.30;;;30.20;99.90;;;;;;4991123;28;20118;-56
2022/09/08 03:15:43;;;;;;;2.05;0.50;;;30.20;99.90;;;;;;4992369;28;20053;-56
2022/09/08 03:18:10;;;;;;;1.33;0.43;;;30.20;99.90;;;;;;4992428;28;20030;-56
2022/09/08 03:20:37;;;;;;;5.80;1.03;;;30.20;99.90;;;;;;4992149;28;20117;-56
2022/09/08 03:23:04;;;;;;;5.00;0.35;;;30.20;99.90;;;;;;4992293;28;20034;-56
2022/09/08 03:25:30;;;;;;;2.38;0.43;;;30.20;99.90;;;;;;4992265;28;20034;-55
2022/09/08 03:27:56;;;;;;;6.50;0.50;;;30.20;99.90;;;;;;4992203;28;20040;-56
2022/09/08 03:30:22;;;;;;;1.02;0.50;;;30.20;99.90;;;;;;4992085;28;20033;-56
2022/09/08 03:32:48;;;;;;;2.28;0.40;;;30.20;99.90;;;;;;4992175;28;20088;-56
2022/09/08 03:35:17;;;;;;;2.50;0.60;;;30.20;99.90;;;;;;4991970;28;20105;-56
2022/09/08 03:37:43;;;;;;;1.27;0.60;;;30.20;99.90;;;;;;4992153;28;20068;-56
2022/09/08 03:40:11;;;;;;;1.48;0.50;;;30.20;99.90;;;;;;4992168;28;20065;-56
2022/09/08 03:42:40;;;;;;;5.00;0.57;;;30.20;99.90;;;;;;4992152;28;20022;-56
2022/09/08 03:45:16;;;;;;;4.10;0.80;;;30.20;99.90;;;;;;4991941;28;20030;-56
2022/09/08 03:47:42;;;;;;;3.17;0.50;;;30.20;99.90;;;;;;4991522;28;20494;-56
2022/09/08 03:50:09;;;;;;;3.70;0.70;;;30.20;99.90;;;;;;4991850;28;20060;-56
2022/09/08 03:52:35;;;;;;;;;;;30.20;99.90;;;;;;4992298;28;20455;-56
2022/09/08 03:55:01;;;;;;;4.65;0.47;;;30.20;99.90;;;;;;4991903;28;20025;-56
2022/09/08 03:57:28;;;;;;;3.42;0.43;;;30.20;99.90;;;;;;4992037;28;20101;-56
2022/09/08 03:59:57;;;;;;;2.05;0.60;;;30.20;99.90;;;;;;5004291;23;20055;-55
2022/09/08 04:02:24;;;;;;;1.17;0.68;;;30.20;99.90;;;;;;4992253;28;20027;-55
2022/09/08 04:04:53;;;;;;;5.68;0.45;;;30.20;99.90;;;;;;4990296;28;20175;-56
2022/09/08 04:07:21;;;;;;;4.63;0.52;;;30.20;99.90;;;;;;4991727;28;20233;-55
2022/09/08 04:09:47;;;;;;;8.32;0.65;;;30.20;99.90;;;;;;4991622;28;20037;-55
2022/09/08 04:12:15;;;;;;;2.30;0.50;;;30.20;99.90;;;;;;4991792;28;20073;-56
2022/09/08 04:14:42;;;;;;;4.38;0.60;;;30.20;99.90;;;;;;4991895;28;20026;-56
2022/09/08 04:17:08;;;;;;;6.17;0.50;;;30.20;99.90;;;;;;4991580;28;20105;-56
2022/09/08 04:19:34;;;;;;;3.43;0.43;;;30.20;99.90;;;;;;4991679;28;20030;-55
2022/09/08 04:22:01;;;;;;;3.20;0.50;;;30.20;99.90;;;;;;4991624;28;20026;-55
2022/09/08 04:24:27;;;;;;;6.27;0.80;;;30.20;99.90;;;;;;4991532;28;20026;-55
2022/09/08 04:26:53;;;;;;;2.53;0.63;;;30.10;99.90;;;;;;4991683;28;20110;-55
2022/09/08 04:29:19;;;;;;;5.80;0.95;;;30.20;99.90;;;;;;4991593;28;20061;-55
2022/09/08 04:31:46;;;;;;;6.38;0.50;;;30.10;99.90;;;;;;4991583;28;20165;-54
2022/09/08 04:34:13;;;;;;;5.50;0.87;;;30.10;99.90;;;;;;4991842;28;20073;-55
2022/09/08 04:36:40;;;;;;;4.70;0.57;;;30.10;99.90;;;;;;4991478;28;20631;-55
2022/09/08 04:39:06;;;;;;;2.25;0.40;;;30.00;99.90;;;;;;4991647;28;20030;-55
2022/09/08 04:41:32;;;;;;;3.85;0.70;;;30.10;99.90;;;;;;4991460;28;20030;-55
2022/09/08 04:44:03;;;;;;;3.20;0.50;;;30.10;99.90;;;;;;4991533;28;20087;-55
2022/09/08 04:46:31;;;;;;;5.38;0.88;;;30.00;99.90;;;;;;4991384;28;20394;-56
2022/09/08 04:48:58;;;;;;;3.40;0.82;;;30.00;99.90;;;;;;4991419;28;20054;-55
2022/09/08 04:51:25;;;;;;;7.30;0.70;;;30.00;99.90;;;;;;4991331;28;20089;-54
2022/09/08 04:53:52;;;;;;;3.22;0.57;;;30.00;99.90;;;;;;4991310;28;20192;-54
2022/09/08 04:56:20;;;;;;;5.07;0.60;;;30.00;99.90;;;;;;4991375;28;20031;-56
2022/09/08 04:58:46;;;;;;;8.52;0.85;;;30.00;99.90;;;;;;4992598;28;20382;-56
2022/09/08 05:01:19;;;;;;;8.10;0.85;;;29.90;99.90;;;;;;4994576;28;20043;-56
2022/09/08 05:03:45;;;;;;;8.75;1.15;;;29.90;99.90;;;;;;4994878;28;20022;-56
2022/09/08 05:06:15;;;;;;;6.40;0.88;;;29.90;99.90;;;;;;4994574;28;20042;-56
2022/09/08 05:08:47;;;;;;;7.18;0.80;;;29.80;99.90;;;;;;4994667;28;20026;-56
2022/09/08 05:11:13;;;;;;;2.22;0.52;;;29.70;99.90;;;;;;4994672;28;20478;-56
2022/09/08 05:13:40;;;;;;;7.03;0.70;;;29.60;99.90;;;;;;4994491;28;20415;-56
2022/09/08 05:16:07;;;;;;;4.20;0.47;;;29.60;99.90;;;;;;4994447;28;20098;-56
2022/09/08 05:18:34;;;;;;;2.00;0.52;;;29.50;99.90;;;;;;4994612;28;20022;-57
2022/09/08 05:20:59;;;;;;;3.28;0.60;;;29.40;99.90;;;;;;4994312;28;20102;-55
2022/09/08 05:23:25;;;;;;;4.50;0.75;;;29.30;99.90;;;;;;4994420;28;20109;-57
2022/09/08 05:26:00;;;;;;;8.77;0.63;;;29.30;99.90;;;;;;4994368;28;20018;-56
2022/09/08 05:28:28;;;;;;;2.88;1.13;;;29.20;99.90;;;;;;4994489;28;20041;-56
2022/09/08 05:30:54;;;;;;;8.35;1.23;;;29.10;99.90;;;;;;4994043;28;20035;-55
2022/09/08 05:33:21;;;;;;;4.00;0.90;;;29.10;99.90;;;;;;4994159;28;20085;-57
2022/09/08 05:35:47;;;;;;;3.42;1.00;;;29.00;99.90;;;;;;4993091;28;20018;-56
2022/09/08 05:38:14;;;;;;;12.20;1.40;;;29.00;99.90;;;;;;4992892;28;20084;-56
2022/09/08 05:40:40;;;;;;;11.48;1.42;;;29.00;99.90;;;;;;4994109;28;20037;-56
2022/09/08 05:43:05;;;;;;;4.35;1.13;;;28.90;99.90;;;;;;4993900;28;20023;-56
2022/09/08 05:45:31;;;;;;;3.35;0.95;;;28.90;99.90;;;;;;4993667;28;20049;-56
2022/09/08 05:47:57;;;;;;;7.75;2.38;;;28.90;99.90;;;;;;4993804;28;20028;-57
2022/09/08 05:50:23;;;;;;;5.43;3.67;;;28.90;99.90;;;;;;4993530;28;20125;-56
2022/09/08 05:52:49;;;;;;;3.25;1.65;;;28.80;99.90;;;;;;4993742;28;20022;-56
2022/09/08 05:55:15;;;;;;;5.75;1.35;;;28.80;99.90;;;;;;4992932;28;20038;-55
2022/09/08 05:57:41;;;;;;;16.27;3.45;;;28.80;99.90;;;;;;4993444;28;20092;-56
2022/09/08 06:00:08;;;;;;;5.97;1.52;;;28.80;99.90;;;;;;4992079;28;20046;-56
2022/09/08 06:02:34;;;;;;;8.30;2.88;;;28.80;99.90;;;;;;4993583;28;20022;-57
2022/09/08 06:05:00;;;;;;;6.50;2.00;;;28.70;99.90;;;;;;4993635;28;20034;-57
2022/09/08 06:07:26;;;;;;;11.48;1.63;;;28.70;99.90;;;;;;4993559;28;20028;-56
2022/09/08 06:09:53;;;;;;;8.45;3.17;;;28.70;99.90;;;;;;4993001;28;20192;-57
2022/09/08 06:12:19;;;;;;;12.90;7.75;;;28.70;99.90;;;;;;4993419;28;20467;-57
2022/09/08 06:14:45;;;;;;;10.63;3.97;;;28.70;99.90;;;;;;4993464;28;20113;-56
2022/09/08 06:17:11;;;;;;;16.40;2.05;;;28.70;99.90;;;;;;4993169;28;20117;-56
2022/09/08 06:19:37;;;;;;;12.05;2.10;;;28.70;99.90;;;;;;4993046;28;20125;-56
2022/09/08 06:22:03;;;;;;;13.18;3.30;;;28.70;99.90;;;;;;4993154;28;20034;-57
2022/09/08 06:24:29;;;;;;;17.63;3.03;;;28.70;99.90;;;;;;4993170;28;20045;-56
2022/09/08 06:27:07;;;;;;;11.77;4.13;;;28.70;99.90;;;;;;4993057;28;20023;-56
2022/09/08 06:30:02;;;;;;;17.63;6.72;;;28.70;99.90;;;;;;4993297;28;20365;-56
2022/09/08 06:32:36;;;;;;;6.65;3.05;;;28.70;99.90;;;;;;4992335;28;20076;-56
2022/09/08 06:35:09;;;;;;;7.07;1.95;;;28.70;99.90;;;;;;4992997;28;20035;-56
2022/09/08 06:37:40;;;;;;;5.60;2.42;;;28.70;99.90;;;;;;4992868;28;20034;-57
2022/09/08 06:40:19;;;;;;;10.77;3.50;;;28.70;99.90;;;;;;4993032;28;20061;-56
2022/09/08 06:43:03;;;;;;;8.38;1.55;;;28.70;99.90;;;;;;4992716;28;20486;-57
2022/09/08 06:45:36;;;;;;;8.73;3.78;;;28.80;99.90;;;;;;4992663;28;20362;-57
2022/09/08 06:48:29;;;;;;;8.60;3.13;;;28.80;99.90;;;;;;4992669;28;20101;-56
2022/09/08 06:51:21;;;;;;;5.43;1.92;;;28.80;99.90;;;;;;4992354;28;20057;-54
2022/09/08 06:54:08;;;;;;;10.32;4.05;;;28.80;99.90;;;;;;4992363;28;20136;-56
2022/09/08 06:56:54;;;;;;;9.30;3.00;;;28.80;99.90;;;;;;4992449;28;20081;-56
2022/09/08 06:59:44;;;;;;;7.35;2.50;;;28.90;99.90;;;;;;4991129;28;20367;-56
2022/09/08 07:02:48;;;;;;;18.10;5.93;;;28.90;99.90;;;;;;4992302;28;20034;-56
2022/09/08 07:05:19;;;;;;;12.38;4.45;;;28.90;99.90;;;;;;4992293;28;20027;-57
2022/09/08 07:07:45;;;;;;;19.15;7.00;;;28.90;99.90;;;;;;4992146;28;20033;-56
2022/09/08 07:10:11;;;;;;;9.95;4.00;;;29.00;99.90;;;;;;4992261;28;20390;-56
2022/09/08 07:12:45;;;;;;;13.38;5.57;;;28.90;99.90;;;;;;4992229;28;20415;-56
2022/09/08 07:15:34;;;;;;;10.50;2.75;;;29.00;99.90;;;;;;4992130;28;20377;-56
2022/09/08 07:18:18;;;;;;;7.15;2.80;;;29.00;99.90;;;;;;4992149;28;20019;-56
2022/09/08 07:20:44;;;;;;;12.02;5.05;;;29.00;99.90;;;;;;4991614;28;20025;-56
2022/09/08 07:23:27;;;;;;;22.88;8.80;;;29.10;99.90;;;;;;4991730;28;20029;-57
2022/09/08 07:26:02;;;;;;;11.45;4.35;;;29.10;99.90;;;;;;4992197;28;20023;-56
2022/09/08 07:28:37;;;;;;;7.80;3.15;;;29.10;99.90;;;;;;4991987;28;20026;-56
2022/09/08 07:31:05;;;;;;;9.68;2.72;;;29.20;99.90;;;;;;4991832;28;20041;-56
2022/09/08 07:33:43;;;;;;;9.40;3.92;;;29.20;99.90;;;;;;4991916;28;20393;-56
2022/09/08 07:36:15;;;;;;;22.73;7.65;;;29.20;99.90;;;;;;4991913;28;20478;-56
2022/09/08 07:38:52;;;;;;;36.28;15.25;;;29.30;99.90;;;;;;4992129;28;20027;-56
2022/09/08 07:41:44;;;;;;;10.50;5.22;;;29.40;99.90;;;;;;4990430;28;20029;-56
2022/09/08 07:44:15;;;;;;;28.23;11.25;;;29.40;99.90;;;;;;4991774;28;20450;-56
2022/09/08 07:47:23;;;;;;;13.40;5.50;;;29.40;99.90;;;;;;4991730;28;20539;-56
2022/09/08 07:50:04;;;;;;;7.55;2.10;;;29.50;99.90;;;;;;4991838;28;20057;-56
2022/09/08 07:52:29;;;;;;;6.75;2.92;;;29.50;99.90;;;;;;4991589;28;20042;-56
2022/09/08 07:55:16;;;;;;;9.95;1.92;;;29.50;99.90;;;;;;4991708;28;20105;-56
2022/09/08 07:58:16;;;;;;;11.68;2.10;;;29.50;99.90;;;;;;4991673;28;20031;-56
2022/09/08 08:01:00;;;;;;;6.18;1.38;;;29.60;99.90;;;;;;4991358;28;20129;-56
2022/09/08 08:03:40;;;;;;;5.50;1.42;;;29.60;99.90;;;;;;4991896;28;20137;-57
2022/09/08 08:06:24;;;;;;;8.68;1.45;;;29.70;99.90;;;;;;4991486;28;20122;-56
2022/09/08 08:08:58;;;;;;;13.63;1.88;;;29.70;99.90;;;;;;4991550;28;20015;-57
2022/09/08 08:11:51;;;;;;;4.45;0.98;;;29.70;99.90;;;;;;4991507;28;20035;-57
2022/09/08 08:14:31;;;;;;;3.35;1.38;;;29.70;99.90;;;;;;4991524;28;20035;-56
2022/09/08 08:17:17;;;;;;;4.90;0.82;;;29.80;99.90;;;;;;4991589;28;20022;-56
2022/09/08 08:20:04;;;;;;;5.95;1.45;;;29.80;99.90;;;;;;4991363;28;20030;-57
2022/09/08 08:22:56;;;;;;;4.97;0.88;;;29.80;99.90;;;;;;4991642;28;20468;-57
2022/09/08 08:25:25;;;;;;;2.40;1.10;;;29.90;99.90;;;;;;4991541;28;20022;-57
2022/09/08 08:28:12;;;;;;;2.67;0.80;;;29.90;99.90;;;;;;4991286;28;20062;-56
2022/09/08 08:31:15;;;;;;;3.75;1.10;;;29.80;99.90;;;;;;4991284;28;20022;-57
2022/09/08 08:33:51;;;;;;;3.40;1.05;;;29.90;99.90;;;;;;4970537;28;20438;-56
2022/09/08 08:36:22;;;;;;;12.43;1.30;;;29.90;99.90;;;;;;4995063;28;20049;-57
2022/09/08 08:39:03;;;;;;;6.30;1.15;;;29.90;99.90;;;;;;4995076;28;20198;-56
2022/09/08 08:41:46;;;;;;;8.32;1.08;;;29.90;99.90;;;;;;4994948;28;20429;-56
2022/09/08 08:44:34;;;;;;;2.75;0.90;;;29.90;99.90;;;;;;4994847;28;20450;-56
2022/09/08 08:47:35;;;;;;;7.05;0.95;;;29.90;99.90;;;;;;4994729;28;20090;-57
2022/09/08 08:50:09;;;;;;;15.63;2.17;;;30.00;99.90;;;;;;4991037;28;20121;-58
2022/09/08 08:53:15;;;;;;;3.22;1.33;;;30.00;99.90;;;;;;4994734;28;20042;-57
2022/09/08 08:55:44;;;;;;;;;;;30.10;99.90;;;;;;4994948;28;20077;-56
2022/09/08 08:58:24;;;;;;;10.45;1.20;;;30.10;99.90;;;;;;4994665;28;20276;-55
2022/09/08 09:01:12;;;;;;;3.88;1.23;;;30.10;99.90;;;;;;4993121;28;20461;-56
2022/09/08 09:04:02;;;;;;;4.03;1.10;;;30.10;99.90;;;;;;4994478;28;20034;-56
2022/09/08 09:06:40;;;;;;;9.25;1.40;;;30.20;99.90;;;;;;4994674;28;20435;-59
2022/09/08 09:09:29;;;;;;;5.57;2.28;;;30.10;99.90;;;;;;4994358;28;20027;-55
2022/09/08 09:12:18;;;;;;;8.90;1.45;;;30.10;99.90;;;;;;4994361;28;20044;-55
2022/09/08 09:15:21;;;;;;;2.35;1.00;;;30.20;99.90;;;;;;4957531;28;20034;-57
2022/09/08 09:18:12;;;;;;;8.20;2.08;;;30.20;99.90;;;;;;4994262;28;20034;-55
2022/09/08 09:20:38;;;;;;;8.27;3.85;;;30.20;99.90;;;;;;4994262;28;20458;-55
2022/09/08 09:23:04;;;;;;;6.60;2.50;;;30.30;99.90;;;;;;4994319;28;20033;-56
2022/09/08 09:25:40;;;;;;;7.00;1.60;;;30.40;99.90;;;;;;4994252;28;20033;-56
2022/09/08 09:28:12;;;;;;;8.17;2.07;;;30.40;99.90;;;;;;4994239;28;20037;-54
2022/09/08 09:31:13;;;;;;;7.10;1.77;;;30.50;99.90;;;;;;4993905;28;20260;-57
2022/09/08 09:34:20;;;;;;;9.38;4.25;;;30.60;99.90;;;;;;4990220;28;20026;-57
2022/09/08 09:37:21;;;;;;;8.65;1.58;;;30.70;99.90;;;;;;4931010;28;20038;-55
2022/09/08 09:39:54;;;;;;;5.00;1.73;;;30.70;99.90;;;;;;4993835;28;20103;-56
2022/09/08 09:42:46;;;;;;;9.27;1.55;;;30.70;99.90;;;;;;4993804;28;20035;-56
2022/09/08 09:45:30;;;;;;;3.47;1.77;;;30.80;99.90;;;;;;4992868;28;20022;-57
2022/09/08 09:48:25;;;;;;;8.43;1.02;;;30.80;99.90;;;;;;4993646;28;20038;-57
2022/09/08 09:50:54;;;;;;;10.35;1.48;;;30.90;99.90;;;;;;4993643;28;20110;-57
2022/09/08 09:53:43;;;;;;;5.20;1.48;;;31.00;99.90;;;;;;4993493;28;20506;-56
2022/09/08 09:56:23;;;;;;;4.35;0.95;;;31.00;99.90;;;;;;4993697;28;20482;-58
2022/09/08 09:59:27;;;;;;;7.82;1.83;;;31.00;99.90;;;;;;4993466;28;20034;-56
2022/09/08 10:02:23;;;;;;;9.40;3.40;;;31.00;99.90;;;;;;4993476;28;20050;-56
2022/09/08 10:05:23;;;;;;;9.13;4.47;;;31.00;99.90;;;;;;4993443;28;20496;-59
2022/09/08 10:08:07;;;;;;;8.57;3.47;;;31.00;99.90;;;;;;4983251;28;20034;-56
2022/09/08 10:10:54;;;;;;;11.10;4.15;;;31.00;99.90;;;;;;4977896;28;20109;-56
2022/09/08 10:13:42;;;;;;;3.88;2.05;;;31.00;99.90;;;;;;4974030;28;20085;-57
2022/09/08 10:16:47;;;;;;;3.53;1.67;;;31.00;99.90;;;;;;4981245;28;20089;-56
2022/09/08 10:19:12;;;;;;;6.07;1.40;;;31.10;99.90;;;;;;4943553;28;20046;-61
2022/09/08 10:22:07;;;;;;;9.50;2.47;;;31.20;99.90;;;;;;4974083;28;20030;-61
2022/09/08 10:24:38;;;;;;;7.88;1.52;;;31.30;99.90;;;;;;4988208;28;20034;-64
2022/09/08 10:27:42;;;;;;;4.80;1.60;;;31.30;99.90;;;;;;4992716;28;20461;-61
2022/09/08 10:30:35;;;;;;;4.22;1.30;;;31.40;99.90;;;;;;4992538;28;20034;-60
2022/09/08 10:33:28;;;;;;;3.63;1.10;;;31.60;99.90;;;;;;4991690;28;20089;-60
2022/09/08 10:36:14;;;;;;;6.85;1.13;;;31.60;99.90;;;;;;4990484;28;20018;-61
2022/09/08 10:39:07;;;;;;;9.25;1.33;;;31.80;99.70;;;;;;4990875;28;20113;-61
2022/09/08 10:41:51;;;;;;;3.25;0.85;;;31.80;99.80;;;;;;4990473;28;20070;-60
2022/09/08 10:44:19;;;;;;;6.05;1.27;;;31.90;95.90;;;;;;4990797;28;20038;-61
2022/09/08 10:47:09;;;;;;;3.47;1.10;;;32.00;96.70;;;;;;4992700;28;20022;-59
2022/09/08 10:49:38;;;;;;;6.40;1.05;;;32.10;99.90;;;;;;4987634;28;20498;-60
2022/09/08 10:52:25;;;;;;;6.93;1.40;;;32.20;98.60;;;;;;4987041;28;20044;-63
2022/09/08 10:55:12;;;;;;;4.82;1.23;;;32.20;99.90;;;;;;4972913;28;20175;-65
2022/09/08 10:58:17;;;;;;;6.80;1.30;;;32.40;99.90;;;;;;4978482;28;20117;-64
2022/09/08 11:00:49;;;;;;;4.78;1.30;;;32.40;90.80;;;;;;4988263;28;20050;-60
2022/09/08 11:03:48;;;;;;;8.38;2.22;;;32.50;89.80;;;;;;4992373;28;20160;-60
2022/09/08 11:06:47;;;;;;;6.15;1.38;;;32.60;99.90;;;;;;4992324;28;20088;-60
2022/09/08 11:09:50;;;;;;;6.63;1.70;;;32.70;99.90;;;;;;4991686;28;20117;-60
2022/09/08 11:12:40;;;;;;;7.32;1.48;;;32.80;99.90;;;;;;4989738;28;20076;-59
2022/09/08 11:15:26;;;;;;;24.63;2.65;;;32.80;99.90;;;;;;4992276;28;20054;-62
2022/09/08 11:18:03;;;;;;;7.10;1.75;;;32.90;99.90;;;;;;4992054;28;20133;-60
2022/09/08 11:20:50;;;;;;;8.50;2.08;;;32.90;99.90;;;;;;4992131;28;20019;-59
2022/09/08 11:23:33;;;;;;;19.98;7.47;;;32.90;99.90;;;;;;4991874;28;20030;-60
2022/09/08 11:26:04;;;;;;;9.10;2.90;;;32.80;99.90;;;;;;4990871;28;20022;-61
2022/09/08 11:28:49;;;;;;;16.60;8.32;;;32.80;99.90;;;;;;4990930;28;20031;-60
2022/09/08 11:31:36;;;;;;;6.78;4.03;;;32.70;99.90;;;;;;4991755;28;20046;-60
2022/09/08 11:34:22;;;;;;;8.15;1.45;;;32.70;99.90;;;;;;4991923;28;20023;-63
2022/09/08 11:36:59;;;;;;;3.00;1.13;;;32.70;99.90;;;;;;4987452;28;20037;-59
2022/09/08 11:40:01;;;;;;;4.35;1.02;;;32.60;99.90;;;;;;4990253;28;20142;-55
2022/09/08 11:42:33;;;;;;;8.23;2.42;;;32.50;99.90;;;;;;4990480;28;20138;-56
2022/09/08 11:45:05;;;;;;;9.27;5.93;;;32.40;99.90;;;;;;4989094;28;20035;-57
2022/09/08 11:48:15;;;;;;;5.80;1.90;;;32.30;99.90;;;;;;4989303;28;20390;-60
2022/09/08 11:51:21;;;;;;;6.15;1.60;;;32.20;99.90;;;;;;4990992;28;20061;-61
2022/09/08 11:54:28;;;;;;;3.83;1.52;;;32.20;99.90;;;;;;4991692;28;20101;-60
2022/09/08 11:57:03;;;;;;;4.25;0.98;;;32.20;99.90;;;;;;4991525;28;20165;-62
2022/09/08 11:59:56;;;;;;;5.40;1.48;;;32.10;99.90;;;;;;4985562;28;20027;-61
2022/09/08 12:02:24;;;;;;;6.05;2.00;;;32.10;99.90;;;;;;4980163;28;20050;-62
2022/09/08 12:05:11;;;;;;;5.43;1.50;;;32.10;99.90;;;;;;4971936;28;20097;-61
2022/09/08 12:08:00;;;;;;;;;;;32.00;99.90;;;;;;4973319;28;20076;-58
2022/09/08 12:10:32;;;;;;;7.90;3.67;;;32.00;99.90;;;;;;4970112;28;19906;-62
2022/09/08 12:13:17;;;;;;;8.40;1.83;;;31.90;99.90;;;;;;4976028;28;20078;-61
2022/09/08 12:16:11;;;;;;;5.45;1.25;;;31.90;99.90;;;;;;4984300;28;20030;-60
2022/09/08 12:18:52;;;;;;;7.00;3.58;;;31.90;99.90;;;;;;4975684;28;20034;-59
2022/09/08 12:21:37;;;;;;;18.92;12.65;;;31.90;99.90;;;;;;4975373;28;20101;-61
2022/09/08 12:24:32;;;;;;;8.32;4.45;;;31.90;99.90;;;;;;4982822;28;20033;-58
2022/09/08 12:27:19;;;;;;;25.25;16.85;;;31.80;99.90;;;;;;4976977;28;20071;-58
2022/09/08 12:30:07;;;;;;;;;;;31.80;99.90;;;;;;4975697;28;20035;-57
2022/09/08 12:33:14;;;;;;;8.45;5.07;;;31.80;99.90;;;;;;4975181;28;20325;-56
2022/09/08 12:36:24;;;;;;;9.27;2.88;;;31.70;99.90;;;;;;4961267;28;20034;-55
2022/09/08 12:39:25;;;;;;;6.70;1.45;;;31.70;99.90;;;;;;4934175;29;20070;-55
2022/09/08 12:41:55;;;;;;;5.97;2.20;;;31.70;99.90;;;;;;4910631;29;20047;-58
2022/09/08 12:44:32;;;;;;;3.85;1.70;;;31.70;99.90;;;;;;4976788;28;20031;-55
2022/09/08 12:47:36;;;;;;;3.97;0.83;;;31.70;99.90;;;;;;4989552;28;20371;-55
2022/09/08 12:50:43;;;;;;;4.47;1.30;;;31.70;99.90;;;;;;4992188;28;20616;-51
2022/09/08 12:53:47;;;;;;;5.75;1.60;;;31.80;99.90;;;;;;4975041;28;20038;-52
2022/09/08 12:56:15;;;;;;;7.22;2.65;;;31.80;99.90;;;;;;4944728;28;20034;-57
2022/09/08 12:59:00;;;;;;;8.05;4.97;;;31.80;99.90;;;;;;4975067;28;20027;-57
2022/09/08 13:02:13;;;;;;;9.38;2.20;;;31.80;99.90;;;;;;4974407;28;20090;-53
2022/09/08 13:04:42;;;;;;;3.65;1.35;;;31.80;99.90;;;;;;4908037;28;20030;-55
2022/09/08 13:07:41;;;;;;;7.55;1.70;;;31.80;99.90;;;;;;4991787;28;20053;-54
2022/09/08 13:10:10;;;;;;;6.78;1.33;;;31.80;99.90;;;;;;4991566;28;20100;-54
2022/09/08 13:13:12;;;;;;;6.82;3.38;;;31.80;99.90;;;;;;4993443;28;20097;-52
2022/09/08 13:15:59;;;;;;;8.00;4.55;;;31.80;99.90;;;;;;4993153;28;20109;-55
2022/09/08 13:18:37;;;;;;;11.73;3.88;;;31.90;99.90;;;;;;4990863;28;20227;-55
2022/09/08 13:21:36;;;;;;;6.10;1.30;;;31.90;99.90;;;;;;4987135;28;20022;-52
2022/09/08 13:24:30;;;;;;;5.90;1.27;;;31.90;99.90;;;;;;4990633;28;20053;-54
2022/09/08 13:27:14;;;;;;;2.35;1.00;;;32.00;99.90;;;;;;4992456;28;20030;-52
2022/09/08 13:29:43;;;;;;;5.75;2.15;;;32.00;99.90;;;;;;4989052;28;20494;-56
2022/09/08 13:32:30;;;;;;;11.23;3.95;;;32.10;99.90;;;;;;4993664;28;20038;-56
2022/09/08 13:35:21;;;;;;;6.22;2.30;;;32.20;99.90;;;;;;4993838;28;20038;-57
2022/09/08 13:38:18;;;;;;;8.52;2.50;;;32.20;99.90;;;;;;4993701;28;20037;-57
2022/09/08 13:41:11;;;;;;;4.22;1.98;;;32.30;99.90;;;;;;4969438;28;20026;-60
2022/09/08 13:43:45;;;;;;;6.18;1.02;;;32.30;99.90;;;;;;4970576;28;20085;-57
2022/09/08 13:46:32;;;;;;;5.68;1.70;;;32.40;98.40;;;;;;4993545;28;20077;-58